Terminal Aerodrome Forecast
Issued by NWS

Home | Current Version | Previous Version | Text Only | Print | Product List | Glossary On
Versions: 1 2 3 4 5 6 7 8 9 10 11 12 13 14 15 16
000
FTUS42 KTAE 211720
TAFVLD
TAF
KVLD 211720Z 2118/2218 06004KT P6SM TS BKN040CB
      TEMPO 2120/2124 VRB10G15KT 2SM TSRA SCT025 BKN040CB
     FM220100 00000KT P6SM BKN250
     FM220600 00000KT 3SM BR FEW001
     FM221300 06004KT P6SM SCT020=

USA.gov is the U.S. government's official web portal to all federal, state and local government web resources and services.